createdAt,value
2018-07-21T00:04:18.640Z,25.70
2018-07-21T00:09:22.733Z,25.60
2018-07-21T00:14:27.110Z,25.50
2018-07-21T00:19:44.529Z,25.50
2018-07-21T00:24:48.656Z,25.40
2018-07-21T00:34:58.166Z,24.90
2018-07-21T00:40:02.288Z,24.80
2018-07-21T00:45:06.500Z,25.10
2018-07-21T00:50:10.593Z,25.10
2018-07-21T00:55:14.997Z,25.10
2018-07-21T01:00:19.092Z,25.20
2018-07-21T01:05:23.327Z,25.20
2018-07-21T01:10:27.401Z,25.10
2018-07-21T01:15:31.593Z,25.00
2018-07-21T01:20:35.739Z,25.00
2018-07-21T01:25:40.766Z,25.00
2018-07-21T01:30:44.881Z,25.00
2018-07-21T01:35:48.964Z,24.90
2018-07-21T01:40:53.500Z,25.00
2018-07-21T01:45:57.573Z,24.80
2018-07-21T01:51:01.636Z,24.60
2018-07-21T01:56:05.957Z,24.60
2018-07-21T02:01:10.026Z,24.60
2018-07-21T02:06:14.507Z,24.50
2018-07-21T02:11:18.569Z,24.70
2018-07-21T02:16:22.705Z,24.80
2018-07-21T02:21:26.851Z,24.70
2018-07-21T02:26:30.945Z,24.70
2018-07-21T02:31:36.090Z,24.60
2018-07-21T02:36:40.189Z,23.70
2018-07-21T02:41:44.243Z,22.70
2018-07-21T02:46:48.316Z,22.70
2018-07-21T02:51:52.537Z,22.90
2018-07-21T02:56:56.664Z,22.80
2018-07-21T03:02:00.782Z,22.40
2018-07-21T03:07:04.885Z,22.50
2018-07-21T03:12:09.320Z,21.70
2018-07-21T03:17:13.575Z,21.40
2018-07-21T03:22:17.681Z,21.30
2018-07-21T03:27:21.750Z,22.20
2018-07-21T03:32:26.089Z,23.10
2018-07-21T03:37:30.281Z,23.10
2018-07-21T03:42:35.191Z,23.20
2018-07-21T03:47:39.354Z,23.30
2018-07-21T03:52:43.422Z,23.70
2018-07-21T03:57:47.540Z,23.80
2018-07-21T04:02:52.657Z,23.70
2018-07-21T04:07:56.742Z,23.80
2018-07-21T04:13:00.873Z,23.90
2018-07-21T04:18:05.132Z,23.80
2018-07-21T04:23:09.311Z,23.80
2018-07-21T04:28:13.502Z,23.90
2018-07-21T04:33:17.561Z,23.90
2018-07-21T04:38:21.626Z,23.90
2018-07-21T04:43:25.736Z,24.00
2018-07-21T04:48:29.881Z,23.80
2018-07-21T04:53:34.002Z,23.10
2018-07-21T04:58:38.153Z,23.20
2018-07-21T05:03:42.257Z,23.20
2018-07-21T05:08:46.371Z,22.70
2018-07-21T05:13:50.473Z,22.50
2018-07-21T05:18:55.622Z,23.20
2018-07-21T05:24:00.076Z,24.10
2018-07-21T05:29:04.132Z,24.60
2018-07-21T05:34:08.495Z,24.90
2018-07-21T05:39:13.403Z,25.10
2018-07-21T05:44:17.482Z,25.50
2018-07-21T05:49:21.600Z,25.80
2018-07-21T05:54:25.753Z,25.90
2018-07-21T05:59:29.884Z,25.90
2018-07-21T06:04:33.993Z,26.10
2018-07-21T06:09:38.093Z,26.30
2018-07-21T06:14:42.173Z,26.20
2018-07-21T06:24:59.889Z,26.10
2018-07-21T06:30:14.159Z,25.90
2018-07-21T06:45:28.629Z,26.30
2018-07-21T06:50:34.336Z,27.00
2018-07-21T06:55:40.405Z,27.40
2018-07-21T07:00:45.340Z,28.50
2018-07-21T07:05:49.560Z,28.70
2018-07-21T07:10:53.785Z,28.70
2018-07-21T07:15:58.058Z,28.10
2018-07-21T07:21:02.592Z,28.80
2018-07-21T07:26:06.711Z,29.40
2018-07-21T07:31:10.888Z,29.40
2018-07-21T07:36:15.049Z,29.90
2018-07-21T07:41:20.142Z,30.50
2018-07-21T07:46:24.383Z,30.80
2018-07-21T07:51:28.523Z,30.90
2018-07-21T07:56:32.771Z,31.00
2018-07-21T08:01:36.926Z,31.50
2018-07-21T08:06:41.088Z,31.80
2018-07-21T08:11:46.061Z,31.00
2018-07-21T08:16:50.232Z,31.60
2018-07-21T08:21:54.494Z,31.20
2018-07-21T08:26:58.665Z,31.50
2018-07-21T08:32:02.861Z,32.80
2018-07-21T08:37:07.052Z,33.50
2018-07-21T08:42:11.239Z,34.10
2018-07-21T08:52:19.966Z,33.30
2018-07-21T08:57:24.259Z,34.90
2018-07-21T09:02:28.557Z,33.90
2018-07-21T09:07:32.769Z,33.40
2018-07-21T09:12:36.905Z,32.70
2018-07-21T09:17:41.480Z,33.30
2018-07-21T09:22:45.776Z,33.70
2018-07-21T09:27:49.994Z,33.20
2018-07-21T09:32:54.179Z,34.70
2018-07-21T09:43:03.095Z,35.00
2018-07-21T09:48:08.177Z,36.40
2018-07-21T09:53:12.292Z,35.60
2018-07-21T09:58:16.434Z,34.90
2018-07-21T10:03:20.747Z,33.50
2018-07-21T10:08:24.986Z,33.70
2018-07-21T10:13:29.203Z,33.80
2018-07-21T10:23:37.457Z,36.60
2018-07-21T10:33:50.809Z,36.90
2018-07-21T10:38:55.003Z,38.80
2018-07-21T10:43:59.550Z,39.10
2018-07-21T10:49:03.653Z,38.60
2018-07-21T10:54:07.884Z,38.70
2018-07-21T10:59:12.167Z,37.90
2018-07-21T11:04:16.332Z,36.30
2018-07-21T11:09:20.451Z,37.10
2018-07-21T11:19:28.299Z,37.30
2018-07-21T11:24:32.794Z,36.10
2018-07-21T11:29:36.933Z,37.90
2018-07-21T11:34:41.153Z,36.70
2018-07-21T11:39:47.055Z,36.70
2018-07-21T11:44:51.342Z,38.50
2018-07-21T11:50:00.425Z,37.20
2018-07-21T11:55:05.682Z,40.10
2018-07-21T12:00:10.189Z,40.70
2018-07-21T12:05:15.240Z,39.70
2018-07-21T12:10:19.594Z,40.90
2018-07-21T12:15:24.020Z,40.60
2018-07-21T12:20:28.368Z,40.40
2018-07-21T12:25:35.525Z,41.50
2018-07-21T12:30:40.929Z,42.30
2018-07-21T12:35:45.217Z,40.40
2018-07-21T12:40:49.894Z,39.20
2018-07-21T12:45:54.083Z,38.00
2018-07-21T12:50:58.190Z,36.90
2018-07-21T12:56:02.309Z,36.40
2018-07-21T13:01:06.482Z,36.90
2018-07-21T13:06:10.734Z,37.00
2018-07-21T13:11:14.910Z,37.00
2018-07-21T13:16:20.090Z,37.90
2018-07-21T13:21:24.830Z,37.20
2018-07-21T13:26:28.989Z,36.80
2018-07-21T13:31:33.150Z,37.00
2018-07-21T13:41:42.622Z,35.90
2018-07-21T13:51:50.504Z,35.70
2018-07-21T13:56:54.714Z,35.20
2018-07-21T14:01:58.911Z,35.00
2018-07-21T14:07:03.919Z,35.00
2018-07-21T14:12:08.365Z,36.40
2018-07-21T14:17:12.496Z,38.10
2018-07-21T14:22:17.361Z,38.10
2018-07-21T14:27:21.760Z,37.60
2018-07-21T14:32:25.964Z,36.10
2018-07-21T14:37:30.065Z,35.30
2018-07-21T14:42:34.241Z,34.80
2018-07-21T14:47:38.361Z,36.10
2018-07-21T14:52:42.494Z,36.90
2018-07-21T15:02:50.447Z,38.70
2018-07-21T15:07:54.580Z,38.50
2018-07-21T15:12:58.779Z,36.80
2018-07-21T15:18:02.990Z,35.30
2018-07-21T15:28:12.224Z,33.50
2018-07-21T15:33:16.930Z,33.00
2018-07-21T15:38:21.930Z,33.20
2018-07-21T15:43:26.092Z,32.80
2018-07-21T15:48:30.814Z,33.00
2018-07-21T15:53:35.270Z,32.80
2018-07-21T15:58:39.425Z,33.20
2018-07-21T16:03:43.763Z,33.30
2018-07-21T16:08:50.350Z,33.20
2018-07-21T16:14:00.807Z,33.20
2018-07-21T16:19:06.292Z,34.00
2018-07-21T16:24:11.286Z,34.50
2018-07-21T16:29:15.618Z,34.80
2018-07-21T16:34:19.921Z,34.70
2018-07-21T16:39:24.309Z,33.70
2018-07-21T16:44:28.466Z,33.30
2018-07-21T16:49:33.548Z,32.80
2018-07-21T16:54:37.753Z,32.10
2018-07-21T16:59:42.296Z,32.40
2018-07-21T17:04:46.428Z,32.50
2018-07-21T17:09:51.524Z,31.10
2018-07-21T17:14:55.620Z,28.70
2018-07-21T17:20:00.633Z,28.50
2018-07-21T17:25:04.799Z,27.90
2018-07-21T17:35:13.686Z,28.00
2018-07-21T17:40:17.929Z,27.60
2018-07-21T17:45:22.347Z,27.60
2018-07-21T17:50:26.534Z,28.10
2018-07-21T17:55:30.789Z,27.70
2018-07-21T18:00:34.966Z,27.40
2018-07-21T18:05:41.013Z,26.50
2018-07-21T18:15:51.173Z,26.10
2018-07-21T18:20:56.876Z,27.60
2018-07-21T18:26:01.031Z,27.20
2018-07-21T18:31:06.196Z,26.80
2018-07-21T18:36:10.320Z,26.50
2018-07-21T18:41:14.496Z,27.80
2018-07-21T18:46:19.785Z,27.50
2018-07-21T18:51:24.960Z,25.20
2018-07-21T18:56:29.894Z,25.40
2018-07-21T19:01:36.031Z,25.80
2018-07-21T19:06:41.376Z,24.60
2018-07-21T19:16:53.749Z,25.00
2018-07-21T19:21:58.025Z,23.30
2018-07-21T19:27:07.680Z,22.90
2018-07-21T19:32:17.276Z,23.90
2018-07-21T19:37:26.988Z,24.80
2018-07-21T19:42:31.287Z,23.60
2018-07-21T19:47:35.494Z,24.20
2018-07-21T19:52:40.272Z,24.20
2018-07-21T19:57:45.343Z,24.70
2018-07-21T20:02:49.543Z,23.00
2018-07-21T20:07:53.734Z,24.20
2018-07-21T20:12:59.778Z,25.20
2018-07-21T20:18:05.507Z,25.90
2018-07-21T20:23:10.634Z,25.00
2018-07-21T20:28:15.865Z,23.50
2018-07-21T20:38:24.814Z,23.20
2018-07-21T20:43:29.616Z,24.60
2018-07-21T20:48:33.650Z,25.10
2018-07-21T20:53:39.176Z,24.30
2018-07-21T20:58:43.284Z,23.10
2018-07-21T21:03:47.385Z,22.10
2018-07-21T21:08:52.308Z,21.90
2018-07-21T21:14:03.209Z,23.40
2018-07-21T21:19:08.491Z,23.30
2018-07-21T21:24:12.693Z,22.90
2018-07-21T21:29:16.879Z,22.40
2018-07-21T21:34:21.084Z,23.60
2018-07-21T21:39:25.294Z,24.20
2018-07-21T21:44:30.026Z,24.90
2018-07-21T21:54:39.041Z,25.20
2018-07-21T21:59:44.172Z,25.50
2018-07-21T22:04:48.544Z,25.40
2018-07-21T22:09:52.800Z,25.30
2018-07-21T22:14:57.094Z,25.20
2018-07-21T22:20:05.954Z,25.20
2018-07-21T22:25:10.361Z,25.00
2018-07-21T22:30:20.629Z,25.10
2018-07-21T22:35:24.970Z,25.00
2018-07-21T22:40:29.353Z,25.10
2018-07-21T22:45:34.192Z,25.20
2018-07-21T22:50:39.152Z,25.20
2018-07-21T22:55:43.797Z,24.90
2018-07-21T23:00:48.316Z,24.90
2018-07-21T23:05:52.527Z,24.90
2018-07-21T23:10:56.758Z,24.90
2018-07-21T23:16:00.983Z,24.90
2018-07-21T23:21:05.156Z,24.90
2018-07-21T23:26:09.398Z,24.70
2018-07-21T23:31:16.092Z,24.40
2018-07-21T23:36:20.520Z,24.60
2018-07-21T23:41:26.918Z,24.30
2018-07-21T23:51:35.334Z,24.40
2018-07-21T23:56:39.629Z,24.10
